sensor_id;sensor_type;location;lat;lon;timestamp;pressure;altitude;pressure_sealevel;temperature;humidity
64827;BME280;51265;53.972;12.286;2023-07-13T00:00:05;100460.06;;;15.35;100.00
64827;BME280;51265;53.972;12.286;2023-07-13T00:02:39;100464.00;;;15.34;100.00
64827;BME280;51265;53.972;12.286;2023-07-13T00:05:05;100457.50;;;15.30;100.00
64827;BME280;51265;53.972;12.286;2023-07-13T00:07:32;100466.94;;;15.29;100.00
64827;BME280;51265;53.972;12.286;2023-07-13T00:09:58;100464.66;;;15.31;100.00
64827;BME280;51265;53.972;12.286;2023-07-13T00:12:27;100466.28;;;15.32;100.00
64827;BME280;51265;53.972;12.286;2023-07-13T00:14:57;100464.66;;;15.31;100.00
64827;BME280;51265;53.972;12.286;2023-07-13T00:17:24;100461.88;;;15.31;100.00
64827;BME280;51265;53.972;12.286;2023-07-13T00:19:50;100455.84;;;15.29;100.00
64827;BME280;51265;53.972;12.286;2023-07-13T00:22:16;100466.94;;;15.29;100.00
64827;BME280;51265;53.972;12.286;2023-07-13T00:24:44;100463.03;;;15.30;100.00
64827;BME280;51265;53.972;12.286;2023-07-13T00:27:11;100466.78;;;15.34;100.00
64827;BME280;51265;53.972;12.286;2023-07-13T00:29:37;100469.41;;;15.31;100.00
64827;BME280;51265;53.972;12.286;2023-07-13T00:32:04;100471.81;;;15.32;100.00
64827;BME280;51265;53.972;12.286;2023-07-13T00:34:31;100470.22;;;15.31;100.00
64827;BME280;51265;53.972;12.286;2023-07-13T00:36:58;100466.94;;;15.29;100.00
64827;BME280;51265;53.972;12.286;2023-07-13T00:39:24;100472.97;;;15.31;100.00
64827;BME280;51265;53.972;12.286;2023-07-13T00:41:51;100480.16;;;15.32;100.00
64827;BME280;51265;53.972;12.286;2023-07-13T00:44:19;100476.56;;;15.32;100.00
64827;BME280;51265;53.972;12.286;2023-07-13T00:46:46;100479.81;;;15.34;100.00
64827;BME280;51265;53.972;12.286;2023-07-13T00:49:15;100477.38;;;15.32;100.00
64827;BME280;51265;53.972;12.286;2023-07-13T00:51:51;100470.22;;;15.31;100.00
64827;BME280;51265;53.972;12.286;2023-07-13T00:54:27;100472.50;;;15.29;100.00
64827;BME280;51265;53.972;12.286;2023-07-13T00:56:59;100468.09;;;15.28;100.00
64827;BME280;51265;53.972;12.286;2023-07-13T00:59:43;100465.31;;;15.28;100.00
64827;BME280;51265;53.972;12.286;2023-07-13T01:02:11;100467.13;;;15.24;100.00
64827;BME280;51265;53.972;12.286;2023-07-13T01:04:38;100471.06;;;15.23;100.00
64827;BME280;51265;53.972;12.286;2023-07-13T01:07:06;100462.75;;;15.23;100.00
64827;BME280;51265;53.972;12.286;2023-07-13T01:09:32;100457.19;;;15.23;100.00
64827;BME280;51265;53.972;12.286;2023-07-13T01:11:58;100449.34;;;15.25;100.00
64827;BME280;51265;53.972;12.286;2023-07-13T01:14:25;100451.44;;;15.28;100.00
64827;BME280;51265;53.972;12.286;2023-07-13T01:16:52;100458.00;;;15.24;100.00
64827;BME280;51265;53.972;12.286;2023-07-13T01:19:39;100464.34;;;15.24;100.00
64827;BME280;51265;53.972;12.286;2023-07-13T01:24:35;100460.16;;;15.18;100.00
64827;BME280;51265;53.972;12.286;2023-07-13T01:27:03;100455.28;;;15.15;100.00
64827;BME280;51265;53.972;12.286;2023-07-13T01:29:32;100449.56;;;15.11;100.00
64827;BME280;51265;53.972;12.286;2023-07-13T01:31:59;100459.19;;;15.14;100.00
64827;BME280;51265;53.972;12.286;2023-07-13T01:34:26;100456.44;;;15.14;100.00
64827;BME280;51265;53.972;12.286;2023-07-13T01:36:53;100451.19;;;15.12;100.00
64827;BME280;51265;53.972;12.286;2023-07-13T01:39:22;100449.72;;;15.15;100.00
64827;BME280;51265;53.972;12.286;2023-07-13T01:41:49;100450.38;;;15.12;100.00
64827;BME280;51265;53.972;12.286;2023-07-13T01:44:15;100457.09;;;15.11;100.00
64827;BME280;51265;53.972;12.286;2023-07-13T01:46:41;100455.94;;;15.12;100.00
64827;BME280;51265;53.972;12.286;2023-07-13T01:49:07;100460.53;;;15.08;100.00
64827;BME280;51265;53.972;12.286;2023-07-13T01:51:34;100450.91;;;15.05;100.00
64827;BME280;51265;53.972;12.286;2023-07-13T01:54:00;100450.78;;;15.02;100.00
64827;BME280;51265;53.972;12.286;2023-07-13T01:56:26;100456.63;;;15.00;100.00
64827;BME280;51265;53.972;12.286;2023-07-13T01:58:53;100456.81;;;14.95;100.00
64827;BME280;51265;53.972;12.286;2023-07-13T02:01:19;100456.66;;;14.91;100.00
64827;BME280;51265;53.972;12.286;2023-07-13T02:03:46;100453.44;;;14.89;100.00
64827;BME280;51265;53.972;12.286;2023-07-13T02:06:12;100464.53;;;14.89;100.00
64827;BME280;51265;53.972;12.286;2023-07-13T02:08:40;100463.66;;;14.98;100.00
64827;BME280;51265;53.972;12.286;2023-07-13T02:11:07;100463.53;;;14.94;100.00
64827;BME280;51265;53.972;12.286;2023-07-13T02:13:33;100473.03;;;14.84;100.00
64827;BME280;51265;53.972;12.286;2023-07-13T02:15:59;100477.22;;;14.90;100.00
64827;BME280;51265;53.972;12.286;2023-07-13T02:18:25;100473.53;;;14.78;100.00
64827;BME280;51265;53.972;12.286;2023-07-13T02:20:52;100475.50;;;14.68;100.00
64827;BME280;51265;53.972;12.286;2023-07-13T02:23:18;100485.09;;;14.71;100.00
64827;BME280;51265;53.972;12.286;2023-07-13T02:25:46;100475.94;;;14.79;100.00
64827;BME280;51265;53.972;12.286;2023-07-13T02:28:12;100482.19;;;14.76;100.00
64827;BME280;51265;53.972;12.286;2023-07-13T02:30:38;100474.69;;;14.68;100.00
64827;BME280;51265;53.972;12.286;2023-07-13T02:33:05;100477.63;;;14.63;100.00
64827;BME280;51265;53.972;12.286;2023-07-13T02:35:31;100487.25;;;14.57;100.00
64827;BME280;51265;53.972;12.286;2023-07-13T02:37:58;100489.72;;;14.50;100.00
64827;BME280;51265;53.972;12.286;2023-07-13T02:40:24;100494.44;;;14.40;100.00
64827;BME280;51265;53.972;12.286;2023-07-13T02:42:51;100493.78;;;14.35;100.00
64827;BME280;51265;53.972;12.286;2023-07-13T02:45:18;100505.84;;;14.30;100.00
64827;BME280;51265;53.972;12.286;2023-07-13T02:47:44;100495.88;;;14.29;100.00
64827;BME280;51265;53.972;12.286;2023-07-13T02:50:11;100509.28;;;14.27;100.00
64827;BME280;51265;53.972;12.286;2023-07-13T02:52:37;100510.41;;;14.26;100.00
64827;BME280;51265;53.972;12.286;2023-07-13T02:55:03;100511.53;;;14.25;100.00
64827;BME280;51265;53.972;12.286;2023-07-13T02:57:29;100517.06;;;14.25;100.00
64827;BME280;51265;53.972;12.286;2023-07-13T02:59:59;100513.19;;;14.26;100.00
64827;BME280;51265;53.972;12.286;2023-07-13T03:02:25;100506.84;;;14.26;100.00
64827;BME280;51265;53.972;12.286;2023-07-13T03:04:55;100518.22;;;14.24;100.00
64827;BME280;51265;53.972;12.286;2023-07-13T03:07:21;100518.22;;;14.24;100.00
64827;BME280;51265;53.972;12.286;2023-07-13T03:09:54;100516.09;;;14.21;100.00
64827;BME280;51265;53.972;12.286;2023-07-13T03:12:22;100516.78;;;14.18;100.00
64827;BME280;51265;53.972;12.286;2023-07-13T03:14:48;100521.63;;;14.12;100.00
64827;BME280;51265;53.972;12.286;2023-07-13T03:17:15;100519.84;;;14.08;100.00
64827;BME280;51265;53.972;12.286;2023-07-13T03:19:42;100521.63;;;14.04;100.00
64827;BME280;51265;53.972;12.286;2023-07-13T03:22:10;100518.38;;;14.02;100.00
64827;BME280;51265;53.972;12.286;2023-07-13T03:24:38;100523.94;;;14.02;100.00
64827;BME280;51265;53.972;12.286;2023-07-13T03:27:06;100521.63;;;14.04;100.00
64827;BME280;51265;53.972;12.286;2023-07-13T03:29:35;100516.09;;;14.04;100.00
64827;BME280;51265;53.972;12.286;2023-07-13T03:32:01;100518.38;;;14.02;100.00
64827;BME280;51265;53.972;12.286;2023-07-13T03:34:28;100525.06;;;14.01;100.00
64827;BME280;51265;53.972;12.286;2023-07-13T03:36:54;100518.56;;;13.97;100.00
64827;BME280;51265;53.972;12.286;2023-07-13T03:39:21;100533.38;;;13.92;100.00
64827;BME280;51265;53.972;12.286;2023-07-13T03:41:54;100531.06;;;13.85;100.00
64827;BME280;51265;53.972;12.286;2023-07-13T03:44:20;100534.97;;;13.84;100.00
64827;BME280;51265;53.972;12.286;2023-07-13T03:46:51;100536.09;;;13.83;100.00
64827;BME280;51265;53.972;12.286;2023-07-13T03:49:17;100538.88;;;13.83;100.00
64827;BME280;51265;53.972;12.286;2023-07-13T03:51:44;100546.88;;;13.85;100.00
64827;BME280;51265;53.972;12.286;2023-07-13T03:54:10;100539.84;;;13.87;100.00
64827;BME280;51265;53.972;12.286;2023-07-13T03:56:37;100541.31;;;13.85;100.00
64827;BME280;51265;53.972;12.286;2023-07-13T03:59:04;100549.31;;;13.86;100.00
64827;BME280;51265;53.972;12.286;2023-07-13T04:01:31;100549.66;;;13.93;100.00
64827;BME280;51265;53.972;12.286;2023-07-13T04:03:57;100549.84;;;14.06;100.00
64827;BME280;51265;53.972;12.286;2023-07-13T04:06:28;100551.00;;;14.22;100.00
64827;BME280;51265;53.972;12.286;2023-07-13T04:08:57;100557.34;;;14.40;100.00
64827;BME280;51265;53.972;12.286;2023-07-13T04:11:29;100565.19;;;14.55;100.00
64827;BME280;51265;53.972;12.286;2023-07-13T04:13:56;100547.06;;;14.75;100.00
64827;BME280;51265;53.972;12.286;2023-07-13T04:16:22;100542.81;;;14.86;100.00
64827;BME280;51265;53.972;12.286;2023-07-13T04:18:49;100536.59;;;14.89;100.00
64827;BME280;51265;53.972;12.286;2023-07-13T04:21:16;100537.59;;;14.93;100.00
64827;BME280;51265;53.972;12.286;2023-07-13T04:23:42;100539.19;;;14.94;100.00
64827;BME280;51265;53.972;12.286;2023-07-13T04:26:09;100536.94;;;14.97;100.00
64827;BME280;51265;53.972;12.286;2023-07-13T04:28:35;100536.25;;;15.00;100.00
64827;BME280;51265;53.972;12.286;2023-07-13T04:31:01;100536.41;;;15.03;100.00
64827;BME280;51265;53.972;12.286;2023-07-13T04:33:28;100540.47;;;15.06;100.00
64827;BME280;51265;53.972;12.286;2023-07-13T04:35:55;100534.25;;;15.09;100.00
64827;BME280;51265;53.972;12.286;2023-07-13T04:38:30;100531.97;;;15.11;100.00
64827;BME280;51265;53.972;12.286;2023-07-13T04:41:00;100520.88;;;15.11;100.00
64827;BME280;51265;53.972;12.286;2023-07-13T04:43:27;100521.03;;;15.14;100.00
64827;BME280;51265;53.972;12.286;2023-07-13T04:45:54;100525.59;;;15.19;100.00
64827;BME280;51265;53.972;12.286;2023-07-13T04:48:21;100508.75;;;15.24;100.00
64827;BME280;51265;53.972;12.286;2023-07-13T04:50:47;100512.47;;;15.28;100.00
64827;BME280;51265;53.972;12.286;2023-07-13T04:53:14;100513.25;;;15.37;100.00
64827;BME280;51265;53.972;12.286;2023-07-13T04:55:40;100509.63;;;15.45;100.00
64827;BME280;51265;53.972;12.286;2023-07-13T04:58:06;100509.25;;;15.56;100.00
64827;BME280;51265;53.972;12.286;2023-07-13T05:00:32;100504.50;;;15.65;100.00
64827;BME280;51265;53.972;12.286;2023-07-13T05:02:59;100505.75;;;15.76;100.00
64827;BME280;51265;53.972;12.286;2023-07-13T05:05:26;100498.63;;;15.87;100.00
64827;BME280;51265;53.972;12.286;2023-07-13T05:07:53;100497.16;;;15.90;100.00
64827;BME280;51265;53.972;12.286;2023-07-13T05:10:19;100501.75;;;16.07;100.00
64827;BME280;51265;53.972;12.286;2023-07-13T05:12:46;100489.34;;;16.04;100.00
64827;BME280;51265;53.972;12.286;2023-07-13T05:15:12;100482.38;;;16.19;100.00
64827;BME280;51265;53.972;12.286;2023-07-13T05:17:38;100487.72;;;16.24;100.00
64827;BME280;51265;53.972;12.286;2023-07-13T05:20:07;100482.75;;;16.30;100.00
64827;BME280;51265;53.972;12.286;2023-07-13T05:22:37;100480.59;;;16.35;100.00
64827;BME280;51265;53.972;12.286;2023-07-13T05:25:07;100482.50;;;16.43;100.00
64827;BME280;51265;53.972;12.286;2023-07-13T05:27:34;100480.44;;;16.53;100.00
64827;BME280;51265;53.972;12.286;2023-07-13T05:30:02;100479.03;;;16.59;100.00
64827;BME280;51265;53.972;12.286;2023-07-13T05:32:28;100490.44;;;16.66;100.00
64827;BME280;51265;53.972;12.286;2023-07-13T05:34:55;100481.88;;;16.71;100.00
64827;BME280;51265;53.972;12.286;2023-07-13T05:37:21;100478.22;;;16.79;100.00
64827;BME280;51265;53.972;12.286;2023-07-13T05:39:47;100476.84;;;16.85;100.00
64827;BME280;51265;53.972;12.286;2023-07-13T05:42:13;100477.97;;;16.84;100.00
64827;BME280;51265;53.972;12.286;2023-07-13T05:44:40;100470.56;;;16.88;99.36
64827;BME280;51265;53.972;12.286;2023-07-13T05:47:06;100475.56;;;16.95;99.54
64827;BME280;51265;53.972;12.286;2023-07-13T05:49:32;100473.38;;;17.01;97.80
64827;BME280;51265;53.972;12.286;2023-07-13T05:51:58;100483.94;;;17.07;96.90
64827;BME280;51265;53.972;12.286;2023-07-13T05:54:24;100472.94;;;17.11;96.04
64827;BME280;51265;53.972;12.286;2023-07-13T05:56:51;100473.19;;;17.18;94.88
64827;BME280;51265;53.972;12.286;2023-07-13T05:59:17;100465.41;;;17.24;93.86
64827;BME280;51265;53.972;12.286;2023-07-13T06:01:44;100467.38;;;17.35;94.27
64827;BME280;51265;53.972;12.286;2023-07-13T06:04:10;100490.91;;;17.50;95.09
64827;BME280;51265;53.972;12.286;2023-07-13T06:06:53;100483.03;;;17.52;94.45
64827;BME280;51265;53.972;12.286;2023-07-13T06:09:19;100483.69;;;17.74;93.92
64827;BME280;51265;53.972;12.286;2023-07-13T06:11:45;100476.84;;;17.71;93.40
64827;BME280;51265;53.972;12.286;2023-07-13T06:14:11;100476.41;;;17.69;92.20
64827;BME280;51265;53.972;12.286;2023-07-13T06:16:39;100474.06;;;17.71;93.01
64827;BME280;51265;53.972;12.286;2023-07-13T06:19:05;100481.41;;;17.76;92.91
64827;BME280;51265;53.972;12.286;2023-07-13T06:21:32;100483.72;;;17.86;91.99
64827;BME280;51265;53.972;12.286;2023-07-13T06:23:58;100480.94;;;17.86;92.71
64827;BME280;51265;53.972;12.286;2023-07-13T06:26:24;100478.25;;;17.89;93.12
64827;BME280;51265;53.972;12.286;2023-07-13T06:28:50;100497.00;;;18.05;93.45
64827;BME280;51265;53.972;12.286;2023-07-13T06:31:17;100496.28;;;18.20;93.68
64827;BME280;51265;53.972;12.286;2023-07-13T06:33:44;100499.25;;;18.39;92.84
64827;BME280;51265;53.972;12.286;2023-07-13T06:36:10;100483.41;;;18.44;91.41
64827;BME280;51265;53.972;12.286;2023-07-13T06:38:38;100485.41;;;18.59;90.59
64827;BME280;51265;53.972;12.286;2023-07-13T06:41:05;100477.03;;;18.71;89.16
64827;BME280;51265;53.972;12.286;2023-07-13T06:43:32;100471.44;;;18.71;87.87
64827;BME280;51265;53.972;12.286;2023-07-13T06:45:59;100463.91;;;18.87;86.68
64827;BME280;51265;53.972;12.286;2023-07-13T06:48:27;100454.34;;;18.88;84.35
64827;BME280;51265;53.972;12.286;2023-07-13T06:50:54;100445.97;;;18.88;83.46
64827;BME280;51265;53.972;12.286;2023-07-13T06:53:20;100442.78;;;19.02;83.13
64827;BME280;51265;53.972;12.286;2023-07-13T06:55:47;100436.00;;;19.03;80.72
64827;BME280;51265;53.972;12.286;2023-07-13T06:58:16;100431.94;;;19.16;80.02
64827;BME280;51265;53.972;12.286;2023-07-13T07:00:42;100417.19;;;19.00;78.34
64827;BME280;51265;53.972;12.286;2023-07-13T07:03:08;100415.47;;;18.96;78.10
64827;BME280;51265;53.972;12.286;2023-07-13T07:05:34;100422.88;;;19.04;78.70
64827;BME280;51265;53.972;12.286;2023-07-13T07:08:01;100411.50;;;18.97;77.47
64827;BME280;51265;53.972;12.286;2023-07-13T07:10:29;100416.09;;;19.05;77.20
64827;BME280;51265;53.972;12.286;2023-07-13T07:12:56;100409.72;;;19.20;76.73
64827;BME280;51265;53.972;12.286;2023-07-13T07:15:22;100410.03;;;19.34;75.97
64827;BME280;51265;53.972;12.286;2023-07-13T07:17:49;100404.03;;;19.52;75.80
64827;BME280;51265;53.972;12.286;2023-07-13T07:20:15;100421.88;;;19.63;76.11
64827;BME280;51265;53.972;12.286;2023-07-13T07:22:42;100410.88;;;19.70;75.63
64827;BME280;51265;53.972;12.286;2023-07-13T07:25:08;100407.50;;;19.80;75.16
64827;BME280;51265;53.972;12.286;2023-07-13T07:27:36;100384.94;;;19.70;73.62
64827;BME280;51265;53.972;12.286;2023-07-13T07:30:03;100389.13;;;19.79;72.71
64827;BME280;51265;53.972;12.286;2023-07-13T07:32:30;100372.06;;;19.84;72.04
64827;BME280;51265;53.972;12.286;2023-07-13T07:34:57;100384.25;;;19.96;72.39
64827;BME280;51265;53.972;12.286;2023-07-13T07:37:24;100374.84;;;20.04;71.54
64827;BME280;51265;53.972;12.286;2023-07-13T07:39:50;100350.72;;;19.96;70.26
64827;BME280;51265;53.972;12.286;2023-07-13T07:42:17;100363.94;;;20.18;70.48
64827;BME280;51265;53.972;12.286;2023-07-13T07:44:43;100367.44;;;20.34;69.14
64827;BME280;51265;53.972;12.286;2023-07-13T07:47:09;100368.78;;;20.63;69.33
64827;BME280;51265;53.972;12.286;2023-07-13T07:49:36;100339.75;;;20.98;66.68
64827;BME280;51265;53.972;12.286;2023-07-13T07:52:02;100332.72;;;21.08;66.16
64827;BME280;51265;53.972;12.286;2023-07-13T07:54:28;100338.88;;;21.17;65.99
64827;BME280;51265;53.972;12.286;2023-07-13T07:56:55;100322.38;;;21.38;65.46
64827;BME280;51265;53.972;12.286;2023-07-13T07:59:21;100317.97;;;21.37;64.50
64827;BME280;51265;53.972;12.286;2023-07-13T08:01:47;100335.19;;;21.66;65.53
64827;BME280;51265;53.972;12.286;2023-07-13T08:04:16;100300.19;;;21.86;63.10
64827;BME280;51265;53.972;12.286;2023-07-13T08:06:42;100288.78;;;21.72;62.45
64827;BME280;51265;53.972;12.286;2023-07-13T08:09:09;100298.34;;;21.68;62.59
64827;BME280;51265;53.972;12.286;2023-07-13T08:11:35;100250.25;;;21.02;61.63
64827;BME280;51265;53.972;12.286;2023-07-13T08:14:01;100270.16;;;20.97;62.25
64827;BME280;51265;53.972;12.286;2023-07-13T08:16:28;100251.94;;;20.53;62.00
64827;BME280;51265;53.972;12.286;2023-07-13T08:18:54;100271.13;;;20.55;62.77
64827;BME280;51265;53.972;12.286;2023-07-13T08:21:20;100252.41;;;20.59;61.89
64827;BME280;51265;53.972;12.286;2023-07-13T08:23:47;100253.00;;;20.72;61.20
64827;BME280;51265;53.972;12.286;2023-07-13T08:26:14;100234.44;;;20.37;61.40
64827;BME280;51265;53.972;12.286;2023-07-13T08:28:41;100253.34;;;20.21;61.81
64827;BME280;51265;53.972;12.286;2023-07-13T08:31:08;100241.69;;;20.15;61.53
64827;BME280;51265;53.972;12.286;2023-07-13T08:33:35;100242.66;;;20.26;61.70
64827;BME280;51265;53.972;12.286;2023-07-13T08:36:02;100261.44;;;20.49;61.62
64827;BME280;51265;53.972;12.286;2023-07-13T08:38:29;100256.88;;;20.63;61.32
64827;BME280;51265;53.972;12.286;2023-07-13T08:40:56;100265.53;;;20.81;61.61
64827;BME280;51265;53.972;12.286;2023-07-13T08:43:26;100272.69;;;21.05;61.43
64827;BME280;51265;53.972;12.286;2023-07-13T08:46:16;100238.75;;;20.80;60.74
64827;BME280;51265;53.972;12.286;2023-07-13T08:48:51;100219.00;;;20.47;60.11
64827;BME280;51265;53.972;12.286;2023-07-13T08:51:37;100239.06;;;20.49;60.47
64827;BME280;51265;53.972;12.286;2023-07-13T08:54:12;100251.72;;;20.43;60.64
64827;BME280;51265;53.972;12.286;2023-07-13T08:56:45;100261.88;;;20.77;60.67
64827;BME280;51265;53.972;12.286;2023-07-13T08:59:18;100282.72;;;21.33;60.53
64827;BME280;51265;53.972;12.286;2023-07-13T09:02:05;100238.63;;;21.30;59.02
64827;BME280;51265;53.972;12.286;2023-07-13T09:04:41;100219.47;;;20.75;59.23
64827;BME280;51265;53.972;12.286;2023-07-13T09:10:09;100272.91;;;20.67;61.25
64827;BME280;51265;53.972;12.286;2023-07-13T09:15:32;100276.56;;;21.54;60.06
64827;BME280;51265;53.972;12.286;2023-07-13T09:18:09;100234.56;;;21.27;58.97
64827;BME280;51265;53.972;12.286;2023-07-13T09:20:50;100239.16;;;21.09;59.57
64827;BME280;51265;53.972;12.286;2023-07-13T09:23:23;100278.94;;;21.52;59.50
64827;BME280;51265;53.972;12.286;2023-07-13T09:25:53;100247.50;;;21.32;59.23
64827;BME280;51265;53.972;12.286;2023-07-13T09:28:28;100292.34;;;21.35;60.58
64827;BME280;51265;53.972;12.286;2023-07-13T09:31:14;100294.41;;;21.12;60.97
64827;BME280;51265;53.972;12.286;2023-07-13T09:33:55;100327.47;;;21.03;62.32
64827;BME280;51265;53.972;12.286;2023-07-13T09:36:30;100298.78;;;21.39;60.14
64827;BME280;51265;53.972;12.286;2023-07-13T09:39:10;100349.53;;;22.28;61.28
64827;BME280;51265;53.972;12.286;2023-07-13T09:41:50;100298.66;;;22.81;58.18
64827;BME280;51265;53.972;12.286;2023-07-13T09:44:29;100243.59;;;22.15;57.13
64827;BME280;51265;53.972;12.286;2023-07-13T09:46:59;100231.59;;;21.43;58.25
64827;BME280;51265;53.972;12.286;2023-07-13T09:49:27;100298.03;;;21.76;59.85
64827;BME280;51265;53.972;12.286;2023-07-13T09:51:59;100317.69;;;22.51;59.47
64827;BME280;51265;53.972;12.286;2023-07-13T09:54:27;100277.72;;;22.68;57.06
64827;BME280;51265;53.972;12.286;2023-07-13T09:56:57;100284.75;;;22.44;57.67
64827;BME280;51265;53.972;12.286;2023-07-13T09:59:29;100265.97;;;22.11;58.07
64827;BME280;51265;53.972;12.286;2023-07-13T10:01:56;100288.88;;;22.61;58.25
64827;BME280;51265;53.972;12.286;2023-07-13T10:04:31;100290.97;;;23.26;56.91
64827;BME280;51265;53.972;12.286;2023-07-13T10:07:06;100243.97;;;23.16;55.48
64827;BME280;51265;53.972;12.286;2023-07-13T10:09:33;100246.31;;;22.52;56.79
64827;BME280;51265;53.972;12.286;2023-07-13T10:11:59;100275.03;;;22.34;57.98
64827;BME280;51265;53.972;12.286;2023-07-13T10:14:25;100245.16;;;21.37;58.34
64827;BME280;51265;53.972;12.286;2023-07-13T10:16:59;100288.63;;;21.31;59.69
64827;BME280;51265;53.972;12.286;2023-07-13T10:19:31;100303.31;;;21.21;59.91
64827;BME280;51265;53.972;12.286;2023-07-13T10:22:01;100326.06;;;21.16;60.93
64827;BME280;51265;53.972;12.286;2023-07-13T10:24:32;100370.94;;;21.46;61.41
64827;BME280;51265;53.972;12.286;2023-07-13T10:27:19;100398.84;;;22.29;61.51
64827;BME280;51265;53.972;12.286;2023-07-13T10:29:50;100387.84;;;22.92;59.94
64827;BME280;51265;53.972;12.286;2023-07-13T10:32:21;100418.91;;;23.68;60.86
64827;BME280;51265;53.972;12.286;2023-07-13T10:34:48;100357.66;;;24.17;57.24
64827;BME280;51265;53.972;12.286;2023-07-13T10:37:21;100383.13;;;24.92;57.77
64827;BME280;51265;53.972;12.286;2023-07-13T10:39:49;100338.72;;;25.60;54.85
64827;BME280;51265;53.972;12.286;2023-07-13T10:42:33;100290.47;;;25.37;53.55
64827;BME280;51265;53.972;12.286;2023-07-13T10:45:01;100280.06;;;25.12;53.45
64827;BME280;51265;53.972;12.286;2023-07-13T10:47:28;100209.19;;;23.46;53.22
64827;BME280;51265;53.972;12.286;2023-07-13T10:49:56;100210.16;;;22.40;54.46
64827;BME280;51265;53.972;12.286;2023-07-13T10:52:46;100255.41;;;22.34;56.44
64827;BME280;51265;53.972;12.286;2023-07-13T10:55:33;100258.69;;;22.03;56.48
64827;BME280;51265;53.972;12.286;2023-07-13T11:00:56;100292.50;;;20.93;59.50
64827;BME280;51265;53.972;12.286;2023-07-13T11:03:23;100393.53;;;19.80;65.21
64827;BME280;51265;53.972;12.286;2023-07-13T11:08:34;100525.81;;;17.97;77.15
64827;BME280;51265;53.972;12.286;2023-07-13T11:11:03;100535.34;;;17.96;80.95
64827;BME280;51265;53.972;12.286;2023-07-13T11:18:47;100528.81;;;20.50;75.39
64827;BME280;51265;53.972;12.286;2023-07-13T11:21:18;100523.03;;;21.47;73.63
64827;BME280;51265;53.972;12.286;2023-07-13T11:24:00;100461.69;;;21.68;68.57
64827;BME280;51265;53.972;12.286;2023-07-13T11:26:51;100461.16;;;21.32;68.86
64827;BME280;51265;53.972;12.286;2023-07-13T11:31:55;100455.22;;;20.69;68.78
64827;BME280;51265;53.972;12.286;2023-07-13T11:34:27;100470.91;;;20.34;69.83
64827;BME280;51265;53.972;12.286;2023-07-13T11:36:56;100512.56;;;20.39;72.59
64827;BME280;51265;53.972;12.286;2023-07-13T11:39:34;100511.38;;;20.02;74.70
64827;BME280;51265;53.972;12.286;2023-07-13T11:42:03;100548.88;;;20.01;76.54
64827;BME280;51265;53.972;12.286;2023-07-13T11:44:33;100538.19;;;20.22;76.07
64827;BME280;51265;53.972;12.286;2023-07-13T11:47:29;100552.81;;;20.70;77.04
64827;BME280;51265;53.972;12.286;2023-07-13T11:49:57;100558.03;;;21.33;77.15
64827;BME280;51265;53.972;12.286;2023-07-13T11:52:35;100525.56;;;21.82;73.99
64827;BME280;51265;53.972;12.286;2023-07-13T11:55:13;100494.25;;;22.33;70.03
64827;BME280;51265;53.972;12.286;2023-07-13T11:57:45;100474.13;;;22.61;68.60
64827;BME280;51265;53.972;12.286;2023-07-13T12:00:22;100475.09;;;23.13;67.51
64827;BME280;51265;53.972;12.286;2023-07-13T12:02:51;100429.00;;;23.21;65.24
64827;BME280;51265;53.972;12.286;2023-07-13T12:05:19;100417.19;;;23.56;62.75
64827;BME280;51265;53.972;12.286;2023-07-13T12:07:50;100414.31;;;24.22;61.86
64827;BME280;51265;53.972;12.286;2023-07-13T12:10:26;100397.97;;;24.60;60.65
64827;BME280;51265;53.972;12.286;2023-07-13T12:12:57;100379.47;;;24.59;60.16
64827;BME280;51265;53.972;12.286;2023-07-13T12:15:38;100350.78;;;24.14;59.55
64827;BME280;51265;53.972;12.286;2023-07-13T12:18:14;100374.94;;;24.22;60.55
64827;BME280;51265;53.972;12.286;2023-07-13T12:20:40;100412.47;;;24.91;60.62
64827;BME280;51265;53.972;12.286;2023-07-13T12:23:23;100371.66;;;25.92;57.16
64827;BME280;51265;53.972;12.286;2023-07-13T12:25:52;100404.53;;;27.42;55.65
64827;BME280;51265;53.972;12.286;2023-07-13T12:29:06;100335.38;;;27.46;53.62
64827;BME280;51265;53.972;12.286;2023-07-13T12:31:29;100310.03;;;26.53;53.31
64827;BME280;51265;53.972;12.286;2023-07-13T12:34:06;100318.56;;;25.58;54.80
64827;BME280;51265;53.972;12.286;2023-07-13T12:36:38;100332.00;;;24.47;57.31
64827;BME280;51265;53.972;12.286;2023-07-13T12:41:51;100493.06;;;22.04;68.54
64827;BME280;51265;53.972;12.286;2023-07-13T12:44:29;100547.78;;;21.94;74.08
64827;BME280;51265;53.972;12.286;2023-07-13T12:47:06;100526.78;;;22.37;71.48
64827;BME280;51265;53.972;12.286;2023-07-13T12:49:42;100508.88;;;22.86;69.09
64827;BME280;51265;53.972;12.286;2023-07-13T12:52:16;100514.59;;;23.86;68.50
64827;BME280;51265;53.972;12.286;2023-07-13T12:54:58;100487.31;;;24.95;65.78
64827;BME280;51265;53.972;12.286;2023-07-13T12:57:25;100416.91;;;25.27;60.69
64827;BME280;51265;53.972;12.286;2023-07-13T12:59:53;100414.81;;;25.81;59.82
64827;BME280;51265;53.972;12.286;2023-07-13T13:02:34;100370.50;;;26.59;56.68
64827;BME280;51265;53.972;12.286;2023-07-13T13:05:01;100367.47;;;27.33;55.41
64827;BME280;51265;53.972;12.286;2023-07-13T13:07:30;100330.94;;;27.49;53.54
64827;BME280;51265;53.972;12.286;2023-07-13T13:09:56;100309.22;;;27.42;52.76